Time,TemperatureF,DewpointF,PressureIn,WindDirection,WindDirectionDegrees,WindSpeedMPH,WindSpeedGustMPH,Humidity,HourlyPrecipIn,Conditions,Clouds,dailyrainin,SoftwareType,DateUTC
2013-02-06 06:20:00,29.7,29.2,29.88,WSW,247,0.0,-999.0,98,-99.99,,,0.01,Acu-Link.com,2013-02-06 11:20:00,
2013-02-06 07:02:00,29.5,29.0,29.90,West,270,0.0,-999.0,98,-99.99,,,0.01,Acu-Link.com,2013-02-06 12:02:00,
2013-02-06 07:17:00,29.8,29.3,29.90,SW,225,0.0,-999.0,98,-99.99,,,0.01,Acu-Link.com,2013-02-06 12:17:00,
2013-02-06 07:33:00,29.8,29.3,29.91,WSW,247,0.0,-999.0,98,-99.99,,,0.01,Acu-Link.com,2013-02-06 12:33:00,
2013-02-06 07:48:00,30.0,29.5,29.90,WSW,247,0.0,-999.0,98,-99.99,,,0.01,Acu-Link.com,2013-02-06 12:48:00,
2013-02-06 08:03:00,30.0,29.5,29.92,ENE,67,0.0,-999.0,98,-99.99,,,0.01,Acu-Link.com,2013-02-06 13:03:00,
2013-02-06 08:18:00,30.2,29.7,29.94,West,270,0.0,-999.0,98,-99.99,,,0.01,Acu-Link.com,2013-02-06 13:18:00,
2013-02-06 08:33:00,30.4,29.9,29.94,SSW,202,0.0,-999.0,98,-99.99,,,0.01,Acu-Link.com,2013-02-06 13:33:00,
2013-02-06 08:48:00,30.7,30.2,29.94,West,270,0.0,-999.0,98,-99.99,,,0.01,Acu-Link.com,2013-02-06 13:48:00,
2013-02-06 09:03:00,31.1,30.6,29.95,West,270,0.0,-999.0,98,-99.99,,,0.01,Acu-Link.com,2013-02-06 14:03:00,
2013-02-06 09:18:00,31.6,31.1,29.96,ENE,67,0.0,-999.0,98,-99.99,,,0.01,Acu-Link.com,2013-02-06 14:18:00,
2013-02-06 09:33:00,32.7,32.2,29.96,NW,315,0.0,-999.0,98,-99.99,,,0.01,Acu-Link.com,2013-02-06 14:33:00,
2013-02-06 09:49:00,32.5,32.0,29.97,West,270,0.0,-999.0,98,-99.99,,,0.01,Acu-Link.com,2013-02-06 14:49:00,
2013-02-06 10:04:00,33.1,32.6,29.97,WSW,247,0.0,-999.0,98,-99.99,,,0.01,Acu-Link.com,2013-02-06 15:04:00,
2013-02-06 10:19:00,33.4,32.9,29.96,West,270,0.0,-999.0,98,-99.99,,,0.01,Acu-Link.com,2013-02-06 15:19:00,
2013-02-06 10:34:00,33.6,33.1,29.97,NNW,337,0.0,-999.0,98,-99.99,,,0.01,Acu-Link.com,2013-02-06 15:34:00,
2013-02-06 10:49:00,34.3,33.8,29.99,West,270,0.0,-999.0,98,-99.99,,,0.01,Acu-Link.com,2013-02-06 15:49:00,
2013-02-06 11:04:00,33.8,33.3,29.98,NNW,337,0.0,-999.0,98,-99.99,,,0.01,Acu-Link.com,2013-02-06 16:04:00,
2013-02-06 11:20:00,35.1,34.6,29.99,NNW,337,2.7,-999.0,98,-99.99,,,0.01,Acu-Link.com,2013-02-06 16:20:00,
2013-02-06 11:35:00,34.9,34.4,29.99,SW,225,2.2,-999.0,98,-99.99,,,0.01,Acu-Link.com,2013-02-06 16:35:00,
2013-02-06 11:50:00,34.9,34.4,30.00,WNW,292,1.7,-999.0,98,-99.99,,,0.01,Acu-Link.com,2013-02-06 16:50:00,
2013-02-06 12:05:00,34.0,33.5,30.00,SW,225,0.0,-999.0,98,-99.99,,,0.01,Acu-Link.com,2013-02-06 17:05:00,
2013-02-06 12:20:00,35.1,34.6,29.99,SSW,202,0.0,-999.0,98,-99.99,,,0.01,Acu-Link.com,2013-02-06 17:20:00,
2013-02-06 12:36:00,35.6,35.1,30.01,South,180,0.0,-999.0,98,-99.99,,,0.01,Acu-Link.com,2013-02-06 17:36:00,
2013-02-06 12:51:00,36.0,35.5,29.99,South,180,1.7,-999.0,98,-99.99,,,0.01,Acu-Link.com,2013-02-06 17:51:00,
2013-02-06 13:06:00,36.7,36.2,30.00,WSW,247,0.0,-999.0,98,-99.99,,,0.01,Acu-Link.com,2013-02-06 18:06:00,
2013-02-06 13:21:00,36.1,35.6,29.99,West,270,0.0,-999.0,98,-99.99,,,0.01,Acu-Link.com,2013-02-06 18:21:00,
2013-02-06 13:36:00,36.7,36.2,29.99,NW,315,1.7,-999.0,98,-99.99,,,0.01,Acu-Link.com,2013-02-06 18:36:00,
2013-02-06 13:51:00,37.0,36.5,30.00,WNW,292,1.1,-999.0,98,-99.99,,,0.01,Acu-Link.com,2013-02-06 18:51:00,
2013-02-06 14:06:00,35.6,35.1,30.00,West,270,0.0,-999.0,98,-99.99,,,0.01,Acu-Link.com,2013-02-06 19:06:00,
2013-02-06 14:21:00,35.4,34.9,30.00,WNW,292,0.0,-999.0,98,-99.99,,,0.01,Acu-Link.com,2013-02-06 19:21:00,
2013-02-06 14:37:00,36.1,35.6,30.00,SSW,202,4.7,-999.0,98,-99.99,,,0.01,Acu-Link.com,2013-02-06 19:37:00,
2013-02-06 14:52:00,35.6,35.1,30.01,WSW,247,4.2,-999.0,98,-99.99,,,0.01,Acu-Link.com,2013-02-06 19:52:00,
2013-02-06 15:07:00,36.1,35.6,30.00,WSW,247,3.2,-999.0,98,-99.99,,,0.01,Acu-Link.com,2013-02-06 20:07:00,
2013-02-06 15:22:00,35.6,35.1,30.02,WNW,292,4.2,-999.0,98,-99.99,,,0.01,Acu-Link.com,2013-02-06 20:22:00,
2013-02-06 15:37:00,36.1,35.6,30.04,NW,315,0.0,-999.0,98,-99.99,,,0.01,Acu-Link.com,2013-02-06 20:37:00,
2013-02-06 15:52:00,36.1,35.6,30.04,SSW,202,3.7,-999.0,98,-99.99,,,0.01,Acu-Link.com,2013-02-06 20:52:00,
2013-02-06 16:07:00,36.7,36.2,30.04,ENE,67,0.0,-999.0,98,-99.99,,,0.01,Acu-Link.com,2013-02-06 21:07:00,
2013-02-06 16:23:00,36.9,36.4,30.02,ESE,112,0.0,-999.0,98,-99.99,,,0.02,Acu-Link.com,2013-02-06 21:23:00,
2013-02-06 16:39:00,35.6,35.1,30.03,NW,315,0.0,-999.0,98,-99.99,,,0.02,Acu-Link.com,2013-02-06 21:39:00,
2013-02-06 16:54:00,35.2,34.7,30.04,NW,315,0.0,-999.0,98,-99.99,,,0.02,Acu-Link.com,2013-02-06 21:54:00,
2013-02-06 17:09:00,34.9,34.4,30.05,West,270,0.0,-999.0,98,-99.99,,,0.02,Acu-Link.com,2013-02-06 22:09:00,
2013-02-06 19:21:00,29.8,29.3,30.06,East,90,0.0,-999.0,98,-99.99,,,0.03,Acu-Link.com,2013-02-07 00:21:00,
2013-02-06 19:36:00,28.4,27.9,30.06,ENE,67,0.0,-999.0,98,-99.99,,,0.03,Acu-Link.com,2013-02-07 00:36:00,
2013-02-06 19:52:00,27.9,27.4,30.07,NE,45,0.0,-999.0,98,-99.99,,,0.03,Acu-Link.com,2013-02-07 00:52:00,
2013-02-06 20:07:00,27.7,27.2,30.06,NE,45,0.0,-999.0,98,-99.99,,,0.03,Acu-Link.com,2013-02-07 01:07:00,
2013-02-06 20:47:00,27.7,27.2,30.07,ENE,67,0.0,-999.0,98,-99.99,,,0.03,Acu-Link.com,2013-02-07 01:47:00,
2013-02-06 21:02:00,26.2,25.7,30.07,ENE,67,0.0,-999.0,98,-99.99,,,0.03,Acu-Link.com,2013-02-07 02:02:00,
2013-02-06 21:25:00,24.4,23.9,30.08,East,90,0.0,-999.0,98,-99.99,,,0.03,Acu-Link.com,2013-02-07 02:25:00,